Terminal Aerodrome Forecast
Issued by NWS

Home | Current Version | Previous Version | Text Only | Print | Product List | Glossary On
Versions: 1 2 3 4 5 6 7 8 9 10 11 12
928
FTUS44 KJAN 202320
TAFGTR
TAF
KGTR 202320Z 2100/2124 17006KT P6SM SCT060
     FM211000 16007KT P6SM BKN050=

USA.gov is the U.S. government's official web portal to all federal, state and local government web resources and services.